メインページ
METAR-TAF:

METAR-TAF

空港 :

エルドレット, ケニヤ

緯度: 00-32N, 経度: 035-17E, 海抜: 2120m

現時点の気象観測

当レポートは2時間40分前の21:00(UTC)に作成
南東の風 3kt
気温 15°C
湿度 88%
気圧 1025 hPa
視程10km以上
高度1800ftの雲はほとんどない, 積乱雲.
高度8000ftの雲は散在している

METAR: HKEL 262100Z 14003KT 9999 FEW018CB SCT080 15/13 Q1025

時間: 02:40 (23:40 UTC)

予報

当レポートは6時間40分前の17:00(UTC)に作成
予報は26日の 18時(UTC)から 27日の 18時(UTC)まで有効
変向風 2kt
視程10km以上
高度1900ftの雲はほとんどない, 積乱雲.
高度2000ftの雲は散在している
26日の 18時(UTC)から 26日の 21時(UTC)まで徐々に
の風 5kt
27日の 03時(UTC)から 27日の 06時(UTC)まで徐々に
の風 5kt
27日の 12時(UTC)から 27日の 15時(UTC)まで徐々に
高度2200ftの雲はほとんどない, 積乱雲.
高度2400ftの雲は散在している
激しい雷雨

TAF: HKEL 261700Z 2618/2718 VRB02KT 9999 FEW019CB SCT020 BECMG 2618/2621 09005KT BECMG 2703/2706 17005KT BECMG 2712/2715 TS FEW022CB SCT024

4,000以上の空港の気象観測と天気予報(METAR報とTAF報)

利用可能な観測所は地図上に黄色い丸と赤い丸で示す。

丸の上にカーソルを重ねると観測所名を参照できる。

次にクリックすると気象観測と天気予報を参照できる。

マップの切り替え:黒色「×」印の緑ボタンをクリックして拡大、「-」印の緑ボタンをクリックして縮小、緑色の三角印をクリックして隣りの地図に切り替え


METAR-TAF: